Brandon Bordelon — WDI431 — position and weather

sailwx.info

Track history (hours):
 
Tides and Currents Weather Stations Pressure Air Temp Water Temp Dewpoint Dewpoint Depression Visibility Wind Speed Wind Dir Waves Ship Positions

Brandon Bordelon

Last reported at 2018-Jan-23 07:31 UTC. Time now 2018-Jan-23 07:59 UTC.
Position N 29°33' W 090°42'.

Length 87 m; draft 4.5 m.

MMSI: 367697440.

Date/timePositionNaut miles runAvg speedWind from/ knotsBaromVisibWave heightAir tempDewpointWater temp
2018-Jan-23 07:31N 29°33' W 090°42'0 0.0
2018-Jan-23 07:00N 29°33' W 090°42'0 0.0
2018-Jan-23 06:31N 29°33' W 090°42'0 0.0
2018-Jan-23 06:01N 29°33' W 090°42'0 0.0
2018-Jan-23 05:31N 29°33' W 090°42'0 0.0
2018-Jan-23 05:01N 29°33' W 090°42'0 0.0
2018-Jan-23 04:31N 29°33' W 090°42'0 0.0
2018-Jan-23 04:00N 29°33' W 090°42'0 0.0
2018-Jan-23 03:31N 29°33' W 090°42'0 0.0
2018-Jan-23 02:59N 29°33' W 090°42'0 0.0
2018-Jan-23 02:31N 29°33' W 090°42'0 0.0
2018-Jan-23 02:01N 29°33' W 090°42'0 0.0
2018-Jan-23 01:31N 29°33' W 090°42'0 0.0
2018-Jan-23 01:00N 29°33' W 090°42'0 0.0
2018-Jan-23 00:30N 29°33' W 090°42'0 0.0
2018-Jan-23 00:01N 29°33' W 090°42'0 0.0
2018-Jan-22 23:30N 29°33' W 090°42'0 0.0
2018-Jan-22 23:00N 29°33' W 090°42'0 0.0
2018-Jan-22 22:31N 29°33' W 090°42'0 0.0
2018-Jan-22 22:01N 29°33' W 090°42'0 0.0
2018-Jan-22 21:31N 29°33' W 090°42'0 0.0
2018-Jan-22 21:00N 29°33' W 090°42'0 0.0
2018-Jan-22 20:30N 29°33' W 090°42'0 0.0
2018-Jan-22 20:01N 29°33' W 090°42'0 0.0
2018-Jan-22 19:30N 29°33' W 090°42'0 0.0
2018-Jan-22 19:01N 29°33' W 090°42'0 0.0
2018-Jan-22 18:31N 29°33' W 090°42'0 0.0
2018-Jan-22 18:01N 29°33' W 090°42'0 0.0
2018-Jan-22 17:30N 29°33' W 090°42'0 0.0
2018-Jan-22 17:00N 29°33' W 090°42'0 0.0
2018-Jan-22 16:31N 29°33' W 090°42'0 0.0
2018-Jan-22 16:01N 29°33' W 090°42'0 0.2
2018-Jan-22 15:30N 29°33' W 090°42'0 0.1
2018-Jan-22 15:00N 29°33' W 090°42'0 0.0
2018-Jan-22 14:30N 29°33' W 090°42'0 0.0
2018-Jan-22 14:00N 29°33' W 090°42'0 0.0
2018-Jan-22 13:30N 29°33' W 090°42'0 0.1
2018-Jan-22 13:01N 29°33' W 090°42'0 0.0
2018-Jan-22 12:31N 29°33' W 090°42'0 0.0
2018-Jan-22 12:00N 29°33' W 090°42'0 0.0
2018-Jan-22 11:31N 29°33' W 090°42'0 0.0
2018-Jan-22 11:00N 29°33' W 090°42'0 0.0
2018-Jan-22 10:29N 29°33' W 090°42'0 0.0
2018-Jan-22 10:01N 29°33' W 090°42'0 0.0
2018-Jan-22 09:30N 29°33' W 090°42'0 0.0
2018-Jan-22 09:01N 29°33' W 090°42'0 0.4
2018-Jan-22 08:30N 29°33' W 090°42'1 1.2
2018-Jan-22 08:01N 29°32' W 090°42'3 5.5
2018-Jan-22 07:30N 29°29' W 090°43'3 5.3
2018-Jan-22 07:00N 29°27' W 090°43'13 0.2
2018-Jan-20 04:28N 29°14' W 090°41'2 3.7
2018-Jan-20 03:51N 29°16' W 090°42'1 3.7
2018-Jan-20 03:31N 29°18' W 090°43'2 3.7
2018-Jan-20 03:00N 29°19' W 090°44'4 3.7
2018-Jan-20 01:58N 29°23' W 090°44'1 3.3
2018-Jan-20 01:31N 29°25' W 090°44'2 4.9
2018-Jan-20 01:00N 29°27' W 090°43'3 5.1
2018-Jan-20 00:31N 29°30' W 090°43'3 5.1
2018-Jan-20 00:00N 29°32' W 090°42'1 1.4
2018-Jan-19 23:31N 29°33' W 090°42'0 0.0
2018-Jan-19 23:01N 29°33' W 090°42'0 0.0
2018-Jan-19 22:30N 29°33' W 090°42'0 0.0
2018-Jan-19 22:00N 29°33' W 090°42'0 0.0
2018-Jan-19 21:30N 29°33' W 090°42'0 0.0
2018-Jan-19 20:59N 29°33' W 090°42'0 0.0
2018-Jan-19 20:30N 29°33' W 090°42'0 0.0
2018-Jan-19 20:00N 29°33' W 090°42'0 0.0
2018-Jan-19 19:31N 29°33' W 090°42'0 0.0
2018-Jan-19 19:00N 29°33' W 090°42'0 0.0
2018-Jan-19 18:30N 29°33' W 090°42'0 0.0
2018-Jan-19 17:59N 29°33' W 090°42'0 0.0
2018-Jan-19 17:30N 29°33' W 090°42'0 0.0
2018-Jan-19 17:00N 29°33' W 090°42'0 0.0
2018-Jan-19 16:31N 29°33' W 090°42'0 0.0
2018-Jan-19 16:00N 29°33' W 090°42'0 0.0
2018-Jan-19 15:30N 29°33' W 090°42'0 0.0
2018-Jan-19 15:00N 29°33' W 090°42'0 0.0
2018-Jan-19 14:31N 29°33' W 090°42'0 0.0
2018-Jan-19 14:00N 29°33' W 090°42'0 0.0
2018-Jan-19 13:31N 29°33' W 090°42'0 0.0
2018-Jan-19 13:00N 29°33' W 090°42'0 0.0
2018-Jan-19 12:30N 29°33' W 090°42'0 0.0
2018-Jan-19 12:00N 29°33' W 090°42'0 0.0
2018-Jan-19 11:30N 29°33' W 090°42'0 0.0
2018-Jan-19 11:00N 29°33' W 090°42'0 0.0
2018-Jan-19 10:30N 29°33' W 090°42'0 0.0
2018-Jan-19 10:01N 29°33' W 090°42'0 0.0
2018-Jan-19 09:31N 29°33' W 090°42'0 0.0
2018-Jan-19 09:00N 29°33' W 090°42'0 0.0
2018-Jan-19 08:30N 29°33' W 090°42'0 0.0
2018-Jan-19 08:00N 29°33' W 090°42'0 0.0
2018-Jan-19 07:30N 29°33' W 090°42'0 0.0
2018-Jan-19 07:00N 29°33' W 090°42'0 0.0
2018-Jan-19 06:30N 29°33' W 090°42'0 0.0
2018-Jan-19 05:59N 29°33' W 090°42'0 0.0
2018-Jan-19 05:30N 29°33' W 090°42'0 0.0
2018-Jan-19 05:00N 29°33' W 090°42'0 0.0
2018-Jan-19 04:30N 29°33' W 090°42'0 0.0
2018-Jan-19 04:00N 29°33' W 090°42'0 0.0
2018-Jan-19 03:30N 29°33' W 090°42'0 0.0
2018-Jan-19 03:00N 29°33' W 090°42'0 0.0
2018-Jan-19 02:30N 29°33' W 090°42'0 0.0
2018-Jan-19 02:00N 29°33' W 090°42'0 0.0
2018-Jan-19 01:30N 29°33' W 090°42'0 0.0
2018-Jan-19 01:00N 29°33' W 090°42'0 0.0
2018-Jan-19 00:29N 29°33' W 090°42'0 0.0
2018-Jan-18 23:59N 29°33' W 090°42'0 0.0
2018-Jan-18 23:30N 29°33' W 090°42'0 0.0
2018-Jan-18 23:00N 29°33' W 090°42'0 0.0
2018-Jan-18 22:28N 29°33' W 090°42'0 0.0
2018-Jan-18 22:00N 29°33' W 090°42'0 0.0
2018-Jan-18 21:30N 29°33' W 090°42'0 0.0
2018-Jan-18 20:59N 29°33' W 090°42'0 0.0
2018-Jan-18 20:07N 29°33' W 090°42'0 0.0
2018-Jan-18 20:00N 29°33' W 090°42'0 0.0
2018-Jan-18 19:30N 29°33' W 090°42'0 0.0
2018-Jan-18 19:00N 29°33' W 090°42'0 0.0
2018-Jan-18 18:30N 29°33' W 090°42'0 0.0
2018-Jan-18 18:00N 29°33' W 090°42'0 0.0
2018-Jan-18 17:30N 29°33' W 090°42'0 0.0
2018-Jan-18 17:00N 29°33' W 090°42'0 0.0
2018-Jan-18 16:30N 29°33' W 090°42'0 0.0
2018-Jan-18 16:00N 29°33' W 090°42'0 0.0
2018-Jan-18 15:30N 29°33' W 090°42'0 0.0
2018-Jan-18 15:00N 29°33' W 090°42'0 0.0
2018-Jan-18 14:30N 29°33' W 090°42'0 0.0
2018-Jan-18 14:00N 29°33' W 090°42'0 0.0
2018-Jan-18 13:30N 29°33' W 090°42'0 0.0
2018-Jan-18 13:00N 29°33' W 090°42'0 0.0
2018-Jan-18 12:30N 29°33' W 090°42'0 0.0
2018-Jan-18 12:00N 29°33' W 090°42'0 0.0
2018-Jan-18 11:30N 29°33' W 090°42'0 0.0
2018-Jan-18 11:00N 29°33' W 090°42'0 0.0
2018-Jan-18 10:30N 29°33' W 090°42'0 0.0
2018-Jan-18 10:00N 29°33' W 090°42'0 0.0
2018-Jan-18 09:30N 29°33' W 090°42'0 0.0
2018-Jan-18 09:00N 29°33' W 090°42'0 0.0
2018-Jan-18 08:29N 29°33' W 090°42'0 0.0
2018-Jan-18 08:00N 29°33' W 090°42'0 0.0
2018-Jan-18 07:30N 29°33' W 090°42'0 0.0
2018-Jan-18 07:00N 29°33' W 090°42'0 0.0
2018-Jan-18 06:28N 29°33' W 090°42'0 0.1
2018-Jan-18 06:00N 29°33' W 090°42'0 0.1
2018-Jan-18 05:30N 29°33' W 090°42'  
Track history (hours):
 
Tides and Currents Weather Stations Pressure Air Temp Water Temp Dewpoint Dewpoint Depression Visibility Wind Speed Wind Dir Waves Ship Positions

Brandon Bordelon

Last reported at 2018-Jan-23 07:31 UTC. Time now 2018-Jan-23 07:59 UTC.
Position N 29°33' W 090°42'.

Length 87 m; draft 4.5 m.

MMSI: 367697440.

Date/timePositionNaut miles runAvg speedWind from/ knotsBaromVisibWave heightAir tempDewpointWater temp
2018-Jan-23 07:31N 29°33' W 090°42'0 0.0
2018-Jan-23 07:00N 29°33' W 090°42'0 0.0
2018-Jan-23 06:31N 29°33' W 090°42'0 0.0
2018-Jan-23 06:01N 29°33' W 090°42'0 0.0
2018-Jan-23 05:31N 29°33' W 090°42'0 0.0
2018-Jan-23 05:01N 29°33' W 090°42'0 0.0
2018-Jan-23 04:31N 29°33' W 090°42'0 0.0
2018-Jan-23 04:00N 29°33' W 090°42'0 0.0
2018-Jan-23 03:31N 29°33' W 090°42'0 0.0
2018-Jan-23 02:59N 29°33' W 090°42'0 0.0
2018-Jan-23 02:31N 29°33' W 090°42'0 0.0
2018-Jan-23 02:01N 29°33' W 090°42'0 0.0
2018-Jan-23 01:31N 29°33' W 090°42'0 0.0
2018-Jan-23 01:00N 29°33' W 090°42'0 0.0
2018-Jan-23 00:30N 29°33' W 090°42'0 0.0
2018-Jan-23 00:01N 29°33' W 090°42'0 0.0
2018-Jan-22 23:30N 29°33' W 090°42'0 0.0
2018-Jan-22 23:00N 29°33' W 090°42'0 0.0
2018-Jan-22 22:31N 29°33' W 090°42'0 0.0
2018-Jan-22 22:01N 29°33' W 090°42'0 0.0
2018-Jan-22 21:31N 29°33' W 090°42'0 0.0
2018-Jan-22 21:00N 29°33' W 090°42'0 0.0
2018-Jan-22 20:30N 29°33' W 090°42'0 0.0
2018-Jan-22 20:01N 29°33' W 090°42'0 0.0
2018-Jan-22 19:30N 29°33' W 090°42'0 0.0
2018-Jan-22 19:01N 29°33' W 090°42'0 0.0
2018-Jan-22 18:31N 29°33' W 090°42'0 0.0
2018-Jan-22 18:01N 29°33' W 090°42'0 0.0
2018-Jan-22 17:30N 29°33' W 090°42'0 0.0
2018-Jan-22 17:00N 29°33' W 090°42'0 0.0
2018-Jan-22 16:31N 29°33' W 090°42'0 0.0
2018-Jan-22 16:01N 29°33' W 090°42'0 0.2
2018-Jan-22 15:30N 29°33' W 090°42'0 0.1
2018-Jan-22 15:00N 29°33' W 090°42'0 0.0
2018-Jan-22 14:30N 29°33' W 090°42'0 0.0
2018-Jan-22 14:00N 29°33' W 090°42'0 0.0
2018-Jan-22 13:30N 29°33' W 090°42'0 0.1
2018-Jan-22 13:01N 29°33' W 090°42'0 0.0
2018-Jan-22 12:31N 29°33' W 090°42'0 0.0
2018-Jan-22 12:00N 29°33' W 090°42'0 0.0
2018-Jan-22 11:31N 29°33' W 090°42'0 0.0
2018-Jan-22 11:00N 29°33' W 090°42'0 0.0
2018-Jan-22 10:29N 29°33' W 090°42'0 0.0
2018-Jan-22 10:01N 29°33' W 090°42'0 0.0
2018-Jan-22 09:30N 29°33' W 090°42'0 0.0
2018-Jan-22 09:01N 29°33' W 090°42'0 0.4
2018-Jan-22 08:30N 29°33' W 090°42'1 1.2
2018-Jan-22 08:01N 29°32' W 090°42'3 5.5
2018-Jan-22 07:30N 29°29' W 090°43'3 5.3
2018-Jan-22 07:00N 29°27' W 090°43'13 0.2
2018-Jan-20 04:28N 29°14' W 090°41'2 3.7
2018-Jan-20 03:51N 29°16' W 090°42'1 3.7
2018-Jan-20 03:31N 29°18' W 090°43'2 3.7
2018-Jan-20 03:00N 29°19' W 090°44'4 3.7
2018-Jan-20 01:58N 29°23' W 090°44'1 3.3
2018-Jan-20 01:31N 29°25' W 090°44'2 4.9
2018-Jan-20 01:00N 29°27' W 090°43'3 5.1
2018-Jan-20 00:31N 29°30' W 090°43'3 5.1
2018-Jan-20 00:00N 29°32' W 090°42'1 1.4
2018-Jan-19 23:31N 29°33' W 090°42'0 0.0
2018-Jan-19 23:01N 29°33' W 090°42'0 0.0
2018-Jan-19 22:30N 29°33' W 090°42'0 0.0
2018-Jan-19 22:00N 29°33' W 090°42'0 0.0
2018-Jan-19 21:30N 29°33' W 090°42'0 0.0
2018-Jan-19 20:59N 29°33' W 090°42'0 0.0
2018-Jan-19 20:30N 29°33' W 090°42'0 0.0
2018-Jan-19 20:00N 29°33' W 090°42'0 0.0
2018-Jan-19 19:31N 29°33' W 090°42'0 0.0
2018-Jan-19 19:00N 29°33' W 090°42'0 0.0
2018-Jan-19 18:30N 29°33' W 090°42'0 0.0
2018-Jan-19 17:59N 29°33' W 090°42'0 0.0
2018-Jan-19 17:30N 29°33' W 090°42'0 0.0
2018-Jan-19 17:00N 29°33' W 090°42'0 0.0
2018-Jan-19 16:31N 29°33' W 090°42'0 0.0
2018-Jan-19 16:00N 29°33' W 090°42'0 0.0
2018-Jan-19 15:30N 29°33' W 090°42'0 0.0
2018-Jan-19 15:00N 29°33' W 090°42'0 0.0
2018-Jan-19 14:31N 29°33' W 090°42'0 0.0
2018-Jan-19 14:00N 29°33' W 090°42'0 0.0
2018-Jan-19 13:31N 29°33' W 090°42'0 0.0
2018-Jan-19 13:00N 29°33' W 090°42'0 0.0
2018-Jan-19 12:30N 29°33' W 090°42'0 0.0
2018-Jan-19 12:00N 29°33' W 090°42'0 0.0
2018-Jan-19 11:30N 29°33' W 090°42'0 0.0
2018-Jan-19 11:00N 29°33' W 090°42'0 0.0
2018-Jan-19 10:30N 29°33' W 090°42'0 0.0
2018-Jan-19 10:01N 29°33' W 090°42'0 0.0
2018-Jan-19 09:31N 29°33' W 090°42'0 0.0
2018-Jan-19 09:00N 29°33' W 090°42'0 0.0
2018-Jan-19 08:30N 29°33' W 090°42'0 0.0
2018-Jan-19 08:00N 29°33' W 090°42'0 0.0
2018-Jan-19 07:30N 29°33' W 090°42'0 0.0
2018-Jan-19 07:00N 29°33' W 090°42'0 0.0
2018-Jan-19 06:30N 29°33' W 090°42'0 0.0
2018-Jan-19 05:59N 29°33' W 090°42'0 0.0
2018-Jan-19 05:30N 29°33' W 090°42'0 0.0
2018-Jan-19 05:00N 29°33' W 090°42'0 0.0
2018-Jan-19 04:30N 29°33' W 090°42'0 0.0
2018-Jan-19 04:00N 29°33' W 090°42'0 0.0
2018-Jan-19 03:30N 29°33' W 090°42'0 0.0
2018-Jan-19 03:00N 29°33' W 090°42'0 0.0
2018-Jan-19 02:30N 29°33' W 090°42'0 0.0
2018-Jan-19 02:00N 29°33' W 090°42'0 0.0
2018-Jan-19 01:30N 29°33' W 090°42'0 0.0
2018-Jan-19 01:00N 29°33' W 090°42'0 0.0
2018-Jan-19 00:29N 29°33' W 090°42'0 0.0
2018-Jan-18 23:59N 29°33' W 090°42'0 0.0
2018-Jan-18 23:30N 29°33' W 090°42'0 0.0
2018-Jan-18 23:00N 29°33' W 090°42'0 0.0
2018-Jan-18 22:28N 29°33' W 090°42'0 0.0
2018-Jan-18 22:00N 29°33' W 090°42'0 0.0
2018-Jan-18 21:30N 29°33' W 090°42'0 0.0
2018-Jan-18 20:59N 29°33' W 090°42'0 0.0
2018-Jan-18 20:07N 29°33' W 090°42'0 0.0
2018-Jan-18 20:00N 29°33' W 090°42'0 0.0
2018-Jan-18 19:30N 29°33' W 090°42'0 0.0
2018-Jan-18 19:00N 29°33' W 090°42'0 0.0
2018-Jan-18 18:30N 29°33' W 090°42'0 0.0
2018-Jan-18 18:00N 29°33' W 090°42'0 0.0
2018-Jan-18 17:30N 29°33' W 090°42'0 0.0
2018-Jan-18 17:00N 29°33' W 090°42'0 0.0
2018-Jan-18 16:30N 29°33' W 090°42'0 0.0
2018-Jan-18 16:00N 29°33' W 090°42'0 0.0
2018-Jan-18 15:30N 29°33' W 090°42'0 0.0
2018-Jan-18 15:00N 29°33' W 090°42'0 0.0
2018-Jan-18 14:30N 29°33' W 090°42'0 0.0
2018-Jan-18 14:00N 29°33' W 090°42'0 0.0
2018-Jan-18 13:30N 29°33' W 090°42'0 0.0
2018-Jan-18 13:00N 29°33' W 090°42'0 0.0
2018-Jan-18 12:30N 29°33' W 090°42'0 0.0
2018-Jan-18 12:00N 29°33' W 090°42'0 0.0
2018-Jan-18 11:30N 29°33' W 090°42'0 0.0
2018-Jan-18 11:00N 29°33' W 090°42'0 0.0
2018-Jan-18 10:30N 29°33' W 090°42'0 0.0
2018-Jan-18 10:00N 29°33' W 090°42'0 0.0
2018-Jan-18 09:30N 29°33' W 090°42'0 0.0
2018-Jan-18 09:00N 29°33' W 090°42'0 0.0
2018-Jan-18 08:29N 29°33' W 090°42'0 0.0
2018-Jan-18 08:00N 29°33' W 090°42'0 0.0
2018-Jan-18 07:30N 29°33' W 090°42'0 0.0
2018-Jan-18 07:00N 29°33' W 090°42'0 0.0
2018-Jan-18 06:28N 29°33' W 090°42'0 0.1
2018-Jan-18 06:00N 29°33' W 090°42'0 0.1
2018-Jan-18 05:30N 29°33' W 090°42'  

Dump ship's entire track history